Terminal Aerodrome Forecast
Issued by NWS

Home | Current Version | Previous Version | Graphics & Text | Print | Product List | Glossary On
Versions: 1 2 3 4 5 6 7 8 9 10 11 12 13
000
FTUS45 KGGW 231128
TAFGDV
TAF
KGDV 231128Z 2312/2412 22005KT P6SM FEW200
     FM231600 24016KT P6SM FEW250
     FM240300 27009KT P6SM SCT150
     FM240600 28005KT P6SM BKN080
      AMD NOT SKED=

USA.gov is the U.S. government's official web portal to all federal, state and local government web resources and services.